createdAt,value
2019-03-13T00:00:57.207Z,5.22
2019-03-13T00:01:57.154Z,5.19
2019-03-13T00:02:57.069Z,5.17
2019-03-13T00:03:57.014Z,5.16
2019-03-13T00:04:56.958Z,5.22
2019-03-13T00:05:56.901Z,5.21
2019-03-13T00:06:56.862Z,5.24
2019-03-13T00:07:56.782Z,5.21
2019-03-13T00:08:56.740Z,5.11
2019-03-13T00:09:56.676Z,5.13
2019-03-13T00:10:56.616Z,5.19
2019-03-13T00:11:56.601Z,5.26
2019-03-13T00:12:56.498Z,5.21
2019-03-13T00:13:56.443Z,5.16
2019-03-13T00:14:56.398Z,5.24
2019-03-13T00:15:56.333Z,5.21
2019-03-13T00:16:56.277Z,5.13
2019-03-13T00:17:56.243Z,5.17
2019-03-13T00:18:56.165Z,5.26
2019-03-13T00:19:56.112Z,5.14
2019-03-13T00:20:56.051Z,5.25
2019-03-13T00:21:55.996Z,5.22
2019-03-13T00:22:55.961Z,5.11
2019-03-13T00:23:55.881Z,5.22
2019-03-13T00:24:56.364Z,5.16
2019-03-13T00:25:55.774Z,5.17
2019-03-13T00:26:55.715Z,5.17
2019-03-13T00:27:55.683Z,5.26
2019-03-13T00:28:55.598Z,5.17
2019-03-13T00:29:55.544Z,5.26
2019-03-13T00:30:55.492Z,5.25
2019-03-13T00:31:55.508Z,5.26
2019-03-13T00:32:55.398Z,5.22
2019-03-13T00:33:55.321Z,5.28
2019-03-13T00:34:55.278Z,5.28
2019-03-13T00:35:55.204Z,5.28
2019-03-13T00:36:55.150Z,5.33
2019-03-13T00:37:55.121Z,5.19
2019-03-13T00:38:55.041Z,5.25
2019-03-13T00:39:54.983Z,5.28
2019-03-13T00:40:54.927Z,5.29
2019-03-13T00:41:54.866Z,5.33
2019-03-13T00:42:54.835Z,5.32
2019-03-13T00:43:54.758Z,5.21
2019-03-13T00:44:54.707Z,5.31
2019-03-13T00:45:54.642Z,5.31
2019-03-13T00:46:54.587Z,5.24
2019-03-13T00:47:54.559Z,5.29
2019-03-13T00:48:54.478Z,5.29
2019-03-13T00:49:54.417Z,5.26
2019-03-13T00:50:54.361Z,5.25
2019-03-13T00:51:54.306Z,5.31
2019-03-13T00:52:54.275Z,5.43
2019-03-13T00:53:54.194Z,5.33
2019-03-13T00:54:54.136Z,5.35
2019-03-13T00:55:54.083Z,5.33
2019-03-13T00:56:54.030Z,5.33
2019-03-13T00:57:53.994Z,5.25
2019-03-13T00:58:53.911Z,5.31
2019-03-13T00:59:53.851Z,5.31
2019-03-13T01:00:53.809Z,5.29
2019-03-13T01:01:53.740Z,5.42
2019-03-13T01:02:53.711Z,5.26
2019-03-13T01:03:53.636Z,5.39
2019-03-13T01:04:53.574Z,5.35
2019-03-13T01:05:53.514Z,5.32
2019-03-13T01:06:53.464Z,5.35
2019-03-13T01:07:53.432Z,5.39
2019-03-13T01:08:53.356Z,5.35
2019-03-13T01:09:53.290Z,5.33
2019-03-13T01:10:53.238Z,5.33
2019-03-13T01:11:53.185Z,5.33
2019-03-13T01:12:53.147Z,5.31
2019-03-13T01:13:53.078Z,5.32
2019-03-13T01:14:53.008Z,5.29
2019-03-13T01:15:52.957Z,5.25
2019-03-13T01:16:52.903Z,5.25
2019-03-13T01:17:52.870Z,5.29
2019-03-13T01:18:52.795Z,5.19
2019-03-13T01:19:52.738Z,5.13
2019-03-13T01:20:52.681Z,5.14
2019-03-13T01:21:52.617Z,5.22
2019-03-13T01:22:52.597Z,5.14
2019-03-13T01:23:52.510Z,5.19
2019-03-13T01:24:52.452Z,5.17
2019-03-13T01:25:52.400Z,5.22
2019-03-13T01:26:52.343Z,5.22
2019-03-13T01:27:52.328Z,5.29
2019-03-13T01:28:52.228Z,5.31
2019-03-13T01:29:52.179Z,5.31
2019-03-13T01:30:52.118Z,5.28
2019-03-13T01:31:52.061Z,5.28
2019-03-13T01:32:52.003Z,5.29
2019-03-13T01:33:51.972Z,5.31
2019-03-13T01:34:51.892Z,5.31
2019-03-13T01:35:51.834Z,5.32
2019-03-13T01:36:51.783Z,5.26
2019-03-13T01:37:51.723Z,5.29
2019-03-13T01:38:51.695Z,5.32
2019-03-13T01:39:51.611Z,5.35
2019-03-13T01:40:51.559Z,5.36
2019-03-13T01:41:51.501Z,5.39
2019-03-13T01:42:51.449Z,5.42
2019-03-13T01:43:51.414Z,5.33
2019-03-13T01:44:51.329Z,5.42
2019-03-13T01:45:51.277Z,5.49
2019-03-13T01:46:51.220Z,5.44
2019-03-13T01:47:51.169Z,5.50
2019-03-13T01:48:51.129Z,5.47
2019-03-13T01:49:51.052Z,5.44
2019-03-13T01:50:50.996Z,5.59
2019-03-13T01:51:50.939Z,5.46
2019-03-13T01:52:50.885Z,5.53
2019-03-13T01:53:50.856Z,5.46
2019-03-13T01:54:50.774Z,5.54
2019-03-13T01:55:50.716Z,5.50
2019-03-13T01:56:50.660Z,5.44
2019-03-13T01:57:50.603Z,5.49
2019-03-13T01:58:50.572Z,5.46
2019-03-13T01:59:50.492Z,5.51
2019-03-13T02:00:50.437Z,5.51
2019-03-13T02:01:50.377Z,5.57
2019-03-13T02:02:50.332Z,5.53
2019-03-13T02:03:50.295Z,5.51
2019-03-13T02:04:50.209Z,5.61
2019-03-13T02:05:50.156Z,5.57
2019-03-13T02:06:50.102Z,5.61
2019-03-13T02:07:50.045Z,5.61
2019-03-13T02:08:50.019Z,5.54
2019-03-13T02:09:49.935Z,5.59
2019-03-13T02:10:49.870Z,5.57
2019-03-13T02:11:49.821Z,5.62
2019-03-13T02:12:49.764Z,5.61
2019-03-13T02:13:49.731Z,5.54
2019-03-13T02:14:49.652Z,5.51
2019-03-13T02:15:49.598Z,5.53
2019-03-13T02:16:49.542Z,5.53
2019-03-13T02:17:49.489Z,5.68
2019-03-13T02:18:49.451Z,5.71
2019-03-13T02:19:49.933Z,5.72
2019-03-13T02:20:49.317Z,5.71
2019-03-13T02:21:49.266Z,5.64
2019-03-13T02:22:49.206Z,5.65
2019-03-13T02:23:49.170Z,5.59
2019-03-13T02:24:49.100Z,5.61
2019-03-13T02:25:49.044Z,5.57
2019-03-13T02:26:48.984Z,5.64
2019-03-13T02:27:48.929Z,5.71
2019-03-13T02:28:48.896Z,5.71
2019-03-13T02:29:48.815Z,5.54
2019-03-13T02:30:48.763Z,5.58
2019-03-13T02:31:48.707Z,5.61
2019-03-13T02:32:48.644Z,5.65
2019-03-13T02:33:48.617Z,5.69
2019-03-13T02:34:48.539Z,5.71
2019-03-13T02:35:48.474Z,5.59
2019-03-13T02:36:48.424Z,5.54
2019-03-13T02:37:48.367Z,5.62
2019-03-13T02:38:48.337Z,5.59
2019-03-13T02:39:48.254Z,5.59
2019-03-13T02:40:48.202Z,5.64
2019-03-13T02:41:48.146Z,5.50
2019-03-13T02:42:48.090Z,5.61
2019-03-13T02:43:48.058Z,5.57
2019-03-13T02:44:47.976Z,5.59
2019-03-13T02:45:47.926Z,5.62
2019-03-13T02:46:47.863Z,5.62
2019-03-13T02:47:47.821Z,5.53
2019-03-13T02:48:47.779Z,5.58
2019-03-13T02:49:47.696Z,5.58
2019-03-13T02:50:47.637Z,5.58
2019-03-13T02:51:47.586Z,5.62
2019-03-13T02:52:47.529Z,5.59
2019-03-13T02:53:47.506Z,5.57
2019-03-13T02:54:47.443Z,5.72
2019-03-13T02:55:47.368Z,5.68
2019-03-13T02:56:47.303Z,5.69
2019-03-13T02:57:47.251Z,5.72
2019-03-13T02:58:47.189Z,5.69
2019-03-13T02:59:47.160Z,5.64
2019-03-13T03:00:47.087Z,5.69
2019-03-13T03:01:47.033Z,5.68
2019-03-13T03:02:46.971Z,5.71
2019-03-13T03:03:46.912Z,5.69
2019-03-13T03:04:46.882Z,5.72
2019-03-13T03:05:46.799Z,5.61
2019-03-13T03:06:46.753Z,5.79
2019-03-13T03:07:46.691Z,5.76
2019-03-13T03:08:46.641Z,5.74
2019-03-13T03:09:46.716Z,5.83
2019-03-13T03:10:46.521Z,5.71
2019-03-13T03:11:46.460Z,5.71
2019-03-13T03:12:46.406Z,5.79
2019-03-13T03:13:46.363Z,5.83
2019-03-13T03:14:46.330Z,5.77
2019-03-13T03:15:46.253Z,5.74
2019-03-13T03:16:46.195Z,5.83
2019-03-13T03:17:46.145Z,5.80
2019-03-13T03:18:46.074Z,5.83
2019-03-13T03:19:46.072Z,5.83
2019-03-13T03:20:45.974Z,5.85
2019-03-13T03:21:45.909Z,5.87
2019-03-13T03:22:45.865Z,5.86
2019-03-13T03:23:45.797Z,5.87
2019-03-13T03:24:45.770Z,5.85
2019-03-13T03:25:45.690Z,5.87
2019-03-13T03:26:45.631Z,5.89
2019-03-13T03:27:45.578Z,5.92
2019-03-13T03:28:45.524Z,5.85
2019-03-13T03:29:45.501Z,5.85
2019-03-13T03:30:45.411Z,5.85
2019-03-13T03:31:45.346Z,5.85
2019-03-13T03:32:45.312Z,5.82
2019-03-13T03:33:45.248Z,5.86
2019-03-13T03:34:45.207Z,5.87
2019-03-13T03:35:45.128Z,5.86
2019-03-13T03:36:45.183Z,5.83
2019-03-13T03:37:45.023Z,5.85
2019-03-13T03:38:44.962Z,5.86
2019-03-13T03:39:44.930Z,5.86
2019-03-13T03:40:44.849Z,5.95
2019-03-13T03:41:44.794Z,5.87
2019-03-13T03:42:44.744Z,5.85
2019-03-13T03:43:44.685Z,6.01
2019-03-13T03:44:44.657Z,5.95
2019-03-13T03:45:52.428Z,5.97
2019-03-13T03:46:44.518Z,5.98
2019-03-13T03:47:44.472Z,5.94
2019-03-13T03:48:44.407Z,6.04
2019-03-13T03:49:44.389Z,5.97
2019-03-13T03:50:44.294Z,6.03
2019-03-13T03:51:44.246Z,5.97
2019-03-13T03:52:44.219Z,5.97
2019-03-13T03:53:44.127Z,5.98
2019-03-13T03:54:44.114Z,5.95
2019-03-13T03:55:44.015Z,5.94
2019-03-13T03:56:43.959Z,6.00
2019-03-13T03:57:43.906Z,6.00
2019-03-13T03:58:43.847Z,6.01
2019-03-13T03:59:43.799Z,6.00
2019-03-13T04:00:43.759Z,5.97
2019-03-13T04:01:43.679Z,6.00
2019-03-13T04:02:43.624Z,5.98
2019-03-13T04:03:43.568Z,5.97
2019-03-13T04:04:43.519Z,6.05
2019-03-13T04:05:43.478Z,6.03
2019-03-13T04:06:43.404Z,6.00
2019-03-13T04:07:43.348Z,6.03
2019-03-13T04:08:43.296Z,6.03
2019-03-13T04:09:43.237Z,6.05
2019-03-13T04:10:43.209Z,6.07
2019-03-13T04:11:43.156Z,6.05
2019-03-13T04:12:43.071Z,6.04
2019-03-13T04:13:44.787Z,6.01
2019-03-13T04:14:42.956Z,6.01
2019-03-13T04:15:42.923Z,6.03
2019-03-13T04:16:42.847Z,6.03
2019-03-13T04:17:42.799Z,5.97
2019-03-13T04:18:42.733Z,6.05
2019-03-13T04:19:42.681Z,6.05
2019-03-13T04:20:42.648Z,6.08
2019-03-13T04:21:42.567Z,6.04
2019-03-13T04:22:42.513Z,6.15
2019-03-13T04:23:42.459Z,6.07
2019-03-13T04:24:42.401Z,6.08
2019-03-13T04:25:42.371Z,6.07
2019-03-13T04:26:42.287Z,6.13
2019-03-13T04:27:42.235Z,6.16
2019-03-13T04:28:42.177Z,6.13
2019-03-13T04:29:42.127Z,6.10
2019-03-13T04:30:42.088Z,6.15
2019-03-13T04:31:42.015Z,6.21
2019-03-13T04:32:41.958Z,6.16
2019-03-13T04:33:41.915Z,6.16
2019-03-13T04:34:41.839Z,6.18
2019-03-13T04:35:41.805Z,6.13
2019-03-13T04:36:41.738Z,6.22
2019-03-13T04:37:41.674Z,6.15
2019-03-13T04:38:41.631Z,6.10
2019-03-13T04:39:41.564Z,6.19
2019-03-13T04:40:41.551Z,6.13
2019-03-13T04:41:41.453Z,6.16
2019-03-13T04:42:41.401Z,6.19
2019-03-13T04:43:41.340Z,6.22
2019-03-13T04:44:41.285Z,6.22
2019-03-13T04:45:41.250Z,6.19
2019-03-13T04:46:41.175Z,6.26
2019-03-13T04:47:41.121Z,6.18
2019-03-13T04:48:41.064Z,6.32
2019-03-13T04:49:41.008Z,6.30
2019-03-13T04:50:40.977Z,6.32
2019-03-13T04:51:40.897Z,6.32
2019-03-13T04:52:40.842Z,6.34
2019-03-13T04:53:40.786Z,6.26
2019-03-13T04:54:40.727Z,6.26
2019-03-13T04:55:40.703Z,6.37
2019-03-13T04:56:40.618Z,6.30
2019-03-13T04:57:40.579Z,6.34
2019-03-13T04:58:40.505Z,6.27
2019-03-13T04:59:40.452Z,6.30
2019-03-13T05:00:40.429Z,6.30
2019-03-13T05:01:40.339Z,6.30
2019-03-13T05:02:40.283Z,6.30
2019-03-13T05:03:40.230Z,6.32
2019-03-13T05:04:40.199Z,6.30
2019-03-13T05:05:40.141Z,6.37
2019-03-13T05:06:40.064Z,6.38
2019-03-13T05:07:40.002Z,6.29
2019-03-13T05:08:45.013Z,6.35
2019-03-13T05:09:39.934Z,6.38
2019-03-13T05:10:39.875Z,6.39
2019-03-13T05:11:39.782Z,6.38
2019-03-13T05:12:39.726Z,6.35
2019-03-13T05:13:39.670Z,6.44
2019-03-13T05:14:39.615Z,6.38
2019-03-13T05:15:39.601Z,6.30
2019-03-13T05:16:39.505Z,6.35
2019-03-13T05:17:39.450Z,6.44
2019-03-13T05:18:39.397Z,6.38
2019-03-13T05:19:39.341Z,6.44
2019-03-13T05:20:39.283Z,6.42
2019-03-13T05:21:39.250Z,6.39
2019-03-13T05:22:39.172Z,6.47
2019-03-13T05:23:39.120Z,6.53
2019-03-13T05:24:39.063Z,6.53
2019-03-13T05:25:39.011Z,6.49
2019-03-13T05:26:38.972Z,6.52
2019-03-13T05:27:38.892Z,6.52
2019-03-13T05:28:38.840Z,6.53
2019-03-13T05:29:38.780Z,6.49
2019-03-13T05:30:38.730Z,6.49
2019-03-13T05:31:38.693Z,6.49
2019-03-13T05:32:38.614Z,6.57
2019-03-13T05:33:38.559Z,6.53
2019-03-13T05:34:38.504Z,6.59
2019-03-13T05:35:38.448Z,6.45
2019-03-13T05:36:38.416Z,6.49
2019-03-13T05:37:38.338Z,6.49
2019-03-13T05:38:38.282Z,6.55
2019-03-13T05:39:38.227Z,6.57
2019-03-13T05:40:38.173Z,6.63
2019-03-13T05:41:38.141Z,6.62
2019-03-13T05:42:38.060Z,6.59
2019-03-13T05:43:38.005Z,6.62
2019-03-13T05:44:37.955Z,6.59
2019-03-13T05:45:37.895Z,6.55
2019-03-13T05:46:37.859Z,6.65
2019-03-13T05:47:37.784Z,6.57
2019-03-13T05:48:37.731Z,6.59
2019-03-13T05:49:37.678Z,6.59
2019-03-13T05:50:37.637Z,6.57
2019-03-13T05:51:37.586Z,6.53
2019-03-13T05:52:37.504Z,6.60
2019-03-13T05:53:37.452Z,6.57
2019-03-13T05:54:37.391Z,6.52
2019-03-13T05:55:37.338Z,6.62
2019-03-13T05:56:37.310Z,6.57
2019-03-13T05:57:37.242Z,6.63
2019-03-13T05:58:37.191Z,6.66
2019-03-13T05:59:37.114Z,6.60
2019-03-13T06:00:37.059Z,6.66
2019-03-13T06:01:37.028Z,6.63
2019-03-13T06:02:36.950Z,6.67
2019-03-13T06:03:36.894Z,6.63
2019-03-13T06:04:36.834Z,6.59
2019-03-13T06:05:36.782Z,6.70
2019-03-13T06:06:36.751Z,6.59
2019-03-13T06:07:36.672Z,6.60
2019-03-13T06:08:36.619Z,6.57
2019-03-13T06:09:36.570Z,6.70
2019-03-13T06:10:36.505Z,6.57
2019-03-13T06:11:36.476Z,6.67
2019-03-13T06:12:36.397Z,6.66
2019-03-13T06:13:36.339Z,6.65
2019-03-13T06:14:36.284Z,6.63
2019-03-13T06:15:36.229Z,6.77
2019-03-13T06:16:36.198Z,6.63
2019-03-13T06:17:36.123Z,6.67
2019-03-13T06:18:36.062Z,6.66
2019-03-13T06:19:36.007Z,6.62
2019-03-13T06:20:35.953Z,6.63
2019-03-13T06:21:35.924Z,6.70
2019-03-13T06:22:35.840Z,6.63
2019-03-13T06:23:35.782Z,6.66
2019-03-13T06:24:35.731Z,6.71
2019-03-13T06:25:35.680Z,6.62
2019-03-13T06:26:35.640Z,6.70
2019-03-13T06:27:35.564Z,6.71
2019-03-13T06:28:35.505Z,6.65
2019-03-13T06:29:35.453Z,6.65
2019-03-13T06:30:35.398Z,6.66
2019-03-13T06:31:35.367Z,6.67
2019-03-13T06:32:35.287Z,6.65
2019-03-13T06:33:35.229Z,6.71
2019-03-13T06:34:35.176Z,6.65
2019-03-13T06:35:35.120Z,6.71
2019-03-13T06:36:35.089Z,6.71
2019-03-13T06:37:35.008Z,6.71
2019-03-13T06:38:34.951Z,6.70
2019-03-13T06:39:34.899Z,6.73
2019-03-13T06:40:34.847Z,6.70
2019-03-13T06:41:34.813Z,6.73
2019-03-13T06:42:34.730Z,6.71
2019-03-13T06:43:34.671Z,6.71
2019-03-13T06:44:34.623Z,6.67
2019-03-13T06:45:34.571Z,6.74
2019-03-13T06:46:34.527Z,6.74
2019-03-13T06:47:34.457Z,6.75
2019-03-13T06:48:34.403Z,6.73
2019-03-13T06:49:34.350Z,6.67
2019-03-13T06:50:34.294Z,6.77
2019-03-13T06:51:34.258Z,6.77
2019-03-13T06:52:34.180Z,6.81
2019-03-13T06:53:34.123Z,6.84
2019-03-13T06:54:34.095Z,6.84
2019-03-13T06:55:34.018Z,6.89
2019-03-13T06:56:33.958Z,6.78
2019-03-13T06:57:33.929Z,6.80
2019-03-13T06:58:33.849Z,6.80
2019-03-13T06:59:33.795Z,6.84
2019-03-13T07:00:33.741Z,6.88
2019-03-13T07:01:33.681Z,6.81
2019-03-13T07:02:33.653Z,6.77
2019-03-13T07:03:33.574Z,6.81
2019-03-13T07:04:33.525Z,6.80
2019-03-13T07:05:33.457Z,6.75
2019-03-13T07:06:33.408Z,6.83
2019-03-13T07:07:33.377Z,6.80
2019-03-13T07:08:33.297Z,6.89
2019-03-13T07:09:33.242Z,6.89
2019-03-13T07:10:33.187Z,6.88
2019-03-13T07:11:33.132Z,6.92
2019-03-13T07:12:33.111Z,6.92
2019-03-13T07:13:33.026Z,6.96
2019-03-13T07:14:32.966Z,6.95
2019-03-13T07:15:35.799Z,6.89
2019-03-13T07:16:32.855Z,6.92
2019-03-13T07:17:32.820Z,6.92
2019-03-13T07:18:32.745Z,6.95
2019-03-13T07:19:32.686Z,6.93
2019-03-13T07:20:32.629Z,6.93
2019-03-13T07:21:32.578Z,6.92
2019-03-13T07:22:32.545Z,6.93
2019-03-13T07:23:32.464Z,6.92
2019-03-13T07:24:32.410Z,6.93
2019-03-13T07:25:32.358Z,6.96
2019-03-13T07:26:32.301Z,6.91
2019-03-13T07:27:32.277Z,6.92
2019-03-13T07:28:32.196Z,6.95
2019-03-13T07:29:32.138Z,6.91
2019-03-13T07:30:32.085Z,6.83
2019-03-13T07:31:32.032Z,6.92
2019-03-13T07:32:31.998Z,6.88
2019-03-13T07:33:31.918Z,6.93
2019-03-13T07:34:31.862Z,6.95
2019-03-13T07:35:31.839Z,6.91
2019-03-13T07:36:31.750Z,6.89
2019-03-13T07:37:31.719Z,6.98
2019-03-13T07:38:31.641Z,6.93
2019-03-13T07:39:31.589Z,6.93
2019-03-13T07:40:31.542Z,6.92
2019-03-13T07:41:31.477Z,7.03
2019-03-13T07:42:31.450Z,6.92
2019-03-13T07:43:31.370Z,6.95
2019-03-13T07:44:31.311Z,6.92
2019-03-13T07:45:31.256Z,6.98
2019-03-13T07:46:31.200Z,6.92
2019-03-13T07:47:31.169Z,6.92
2019-03-13T07:48:31.091Z,6.93
2019-03-13T07:49:31.042Z,6.85
2019-03-13T07:50:30.979Z,6.81
2019-03-13T07:51:30.927Z,6.84
2019-03-13T07:52:32.672Z,6.78
2019-03-13T07:53:30.810Z,6.88
2019-03-13T07:54:30.761Z,6.81
2019-03-13T07:55:30.705Z,6.78
2019-03-13T07:56:30.655Z,6.67
2019-03-13T07:57:30.635Z,6.66
2019-03-13T07:58:30.535Z,6.66
2019-03-13T07:59:30.483Z,6.65
2019-03-13T08:00:30.425Z,6.60
2019-03-13T08:01:30.373Z,6.59
2019-03-13T08:02:30.319Z,6.62
2019-03-13T08:03:30.287Z,6.62
2019-03-13T08:04:30.207Z,6.53
2019-03-13T08:05:30.153Z,6.53
2019-03-13T08:06:30.098Z,6.60
2019-03-13T08:07:30.049Z,6.57
2019-03-13T08:08:30.014Z,6.62
2019-03-13T08:09:29.930Z,6.65
2019-03-13T08:10:29.876Z,6.62
2019-03-13T08:11:29.823Z,6.62
2019-03-13T08:12:29.764Z,6.56
2019-03-13T08:13:29.734Z,6.56
2019-03-13T08:14:29.654Z,6.55
2019-03-13T08:15:29.599Z,6.62
2019-03-13T08:16:29.534Z,6.57
2019-03-13T08:17:29.490Z,6.56
2019-03-13T08:18:29.452Z,6.60
2019-03-13T08:19:29.398Z,6.63
2019-03-13T08:20:29.324Z,6.55
2019-03-13T08:21:29.265Z,6.60
2019-03-13T08:22:29.211Z,6.56
2019-03-13T08:23:29.184Z,6.59
2019-03-13T08:24:29.106Z,6.59
2019-03-13T08:25:29.041Z,6.59
2019-03-13T08:26:28.990Z,6.62
2019-03-13T08:27:28.930Z,6.59
2019-03-13T08:28:28.900Z,6.56
2019-03-13T08:29:28.832Z,6.63
2019-03-13T08:30:28.770Z,6.65
2019-03-13T08:31:28.713Z,6.65
2019-03-13T08:32:28.662Z,6.65
2019-03-13T08:33:28.626Z,6.65
2019-03-13T08:34:28.546Z,6.65
2019-03-13T08:35:28.493Z,6.71
2019-03-13T08:36:28.440Z,6.67
2019-03-13T08:37:28.382Z,6.75
2019-03-13T08:38:28.353Z,6.71
2019-03-13T08:39:28.268Z,6.75
2019-03-13T08:40:28.226Z,6.77
2019-03-13T08:41:28.166Z,6.81
2019-03-13T08:42:28.115Z,6.70
2019-03-13T08:43:28.074Z,6.75
2019-03-13T08:44:27.996Z,6.80
2019-03-13T08:45:27.938Z,6.80
2019-03-13T08:46:27.885Z,6.83
2019-03-13T08:47:27.833Z,6.78
2019-03-13T08:48:27.796Z,6.80
2019-03-13T08:49:27.721Z,6.78
2019-03-13T08:50:27.667Z,6.77
2019-03-13T08:51:27.610Z,6.85
2019-03-13T08:52:27.549Z,6.85
2019-03-13T08:53:27.521Z,6.78
2019-03-13T08:54:27.443Z,6.81
2019-03-13T08:55:27.394Z,6.78
2019-03-13T08:56:27.337Z,6.78
2019-03-13T08:57:27.280Z,6.91
2019-03-13T08:58:27.244Z,6.84
2019-03-13T08:59:27.169Z,6.81
2019-03-13T09:00:27.135Z,6.80
2019-03-13T09:01:27.055Z,6.95
2019-03-13T09:02:27.006Z,6.92
2019-03-13T09:03:26.975Z,6.96
2019-03-13T09:04:26.898Z,6.91
2019-03-13T09:05:26.837Z,6.88
2019-03-13T09:06:26.783Z,7.00
2019-03-13T09:07:26.728Z,7.05
2019-03-13T09:08:26.692Z,7.07
2019-03-13T09:09:26.620Z,7.02
2019-03-13T09:10:26.563Z,7.07
2019-03-13T09:11:26.511Z,7.08
2019-03-13T09:12:26.448Z,7.05
2019-03-13T09:13:26.417Z,7.02
2019-03-13T09:14:26.338Z,7.07
2019-03-13T09:15:26.287Z,7.05
2019-03-13T09:16:26.231Z,7.07
2019-03-13T09:17:26.183Z,7.03
2019-03-13T09:18:26.140Z,7.10
2019-03-13T09:19:26.065Z,7.03
2019-03-13T09:20:26.010Z,7.08
2019-03-13T09:21:25.960Z,7.05
2019-03-13T09:22:25.900Z,7.03
2019-03-13T09:23:25.911Z,7.03
2019-03-13T09:24:25.789Z,7.03
2019-03-13T09:25:25.728Z,7.08
2019-03-13T09:26:25.678Z,7.05
2019-03-13T09:27:25.625Z,7.02
2019-03-13T09:28:25.571Z,7.02
2019-03-13T09:29:25.685Z,7.08
2019-03-13T09:30:25.455Z,7.02
2019-03-13T09:31:25.739Z,7.03
2019-03-13T09:32:25.349Z,7.10
2019-03-13T09:33:25.299Z,7.02
2019-03-13T09:34:25.262Z,7.13
2019-03-13T09:35:25.178Z,7.07
2019-03-13T09:36:25.128Z,7.02
2019-03-13T09:37:25.076Z,7.03
2019-03-13T09:38:25.022Z,7.08
2019-03-13T09:39:24.992Z,7.02
2019-03-13T09:40:24.912Z,7.08
2019-03-13T09:41:24.853Z,7.10
2019-03-13T09:42:24.800Z,7.07
2019-03-13T09:43:24.750Z,7.07
2019-03-13T09:44:24.712Z,7.07
2019-03-13T09:45:24.632Z,7.00
2019-03-13T09:46:24.574Z,7.03
2019-03-13T09:47:24.529Z,7.13
2019-03-13T09:48:24.467Z,7.03
2019-03-13T09:49:24.439Z,7.07
2019-03-13T09:50:24.366Z,7.14
2019-03-13T09:51:24.305Z,7.11
2019-03-13T09:52:24.250Z,7.18
2019-03-13T09:53:24.190Z,7.13
2019-03-13T09:54:24.181Z,7.20
2019-03-13T09:55:24.082Z,7.11
2019-03-13T09:56:24.031Z,7.17
2019-03-13T09:57:23.976Z,7.17
2019-03-13T09:58:23.945Z,7.20
2019-03-13T09:59:23.891Z,7.17
2019-03-13T10:00:23.810Z,7.18
2019-03-13T10:01:23.756Z,7.18
2019-03-13T10:02:23.699Z,7.17
2019-03-13T10:03:23.655Z,7.23
2019-03-13T10:04:23.620Z,7.31
2019-03-13T10:05:23.537Z,7.28
2019-03-13T10:06:23.482Z,7.34
2019-03-13T10:07:23.430Z,7.29
2019-03-13T10:08:23.375Z,7.28
2019-03-13T10:09:23.339Z,7.26
2019-03-13T10:10:23.259Z,7.28
2019-03-13T10:11:23.208Z,7.31
2019-03-13T10:12:23.154Z,7.32
2019-03-13T10:13:23.108Z,7.26
2019-03-13T10:14:23.068Z,7.23
2019-03-13T10:15:22.991Z,7.18
2019-03-13T10:16:22.929Z,7.07
2019-03-13T10:17:22.880Z,7.08
2019-03-13T10:18:22.833Z,7.05
2019-03-13T10:19:22.793Z,6.99
2019-03-13T10:20:22.714Z,7.07
2019-03-13T10:21:22.655Z,7.10
2019-03-13T10:22:22.602Z,7.05
2019-03-13T10:23:22.548Z,7.08
2019-03-13T10:24:22.521Z,7.02
2019-03-13T10:25:22.440Z,7.08
2019-03-13T10:26:22.386Z,7.03
2019-03-13T10:27:22.330Z,7.08
2019-03-13T10:28:22.284Z,7.11
2019-03-13T10:29:22.245Z,7.14
2019-03-13T10:30:22.167Z,7.17
2019-03-13T10:31:22.139Z,7.21
2019-03-13T10:32:22.057Z,7.21
2019-03-13T10:33:22.083Z,7.20
2019-03-13T10:34:21.972Z,7.14
2019-03-13T10:35:21.892Z,7.11
2019-03-13T10:36:21.835Z,7.07
2019-03-13T10:37:21.780Z,7.07
2019-03-13T10:38:21.732Z,7.08
2019-03-13T10:39:21.699Z,7.03
2019-03-13T10:40:21.615Z,6.93
2019-03-13T10:41:21.563Z,7.03
2019-03-13T10:42:21.507Z,6.92
2019-03-13T10:43:21.456Z,6.91
2019-03-13T10:44:21.402Z,6.95
2019-03-13T10:45:21.474Z,6.92
2019-03-13T10:46:21.283Z,6.88
2019-03-13T10:47:21.235Z,6.83
2019-03-13T10:48:21.179Z,6.84
2019-03-13T10:49:21.124Z,6.85
2019-03-13T10:50:21.088Z,6.81
2019-03-13T10:51:21.012Z,6.67
2019-03-13T10:52:20.954Z,6.77
2019-03-13T10:53:20.905Z,6.73
2019-03-13T10:54:20.848Z,6.73
2019-03-13T10:55:20.815Z,6.73
2019-03-13T10:56:20.755Z,6.70
2019-03-13T10:57:20.687Z,6.63
2019-03-13T10:58:20.659Z,6.66
2019-03-13T10:59:20.668Z,6.71
2019-03-13T11:00:20.551Z,6.71
2019-03-13T11:01:20.464Z,6.63
2019-03-13T11:02:20.409Z,6.71
2019-03-13T11:03:20.351Z,6.66
2019-03-13T11:04:20.297Z,6.70
2019-03-13T11:05:20.268Z,6.59
2019-03-13T11:06:20.187Z,6.57
2019-03-13T11:07:20.130Z,6.65
2019-03-13T11:08:20.071Z,6.59
2019-03-13T11:09:20.020Z,6.65
2019-03-13T11:10:19.988Z,6.59
2019-03-13T11:11:19.910Z,6.63
2019-03-13T11:12:19.856Z,6.57
2019-03-13T11:13:19.796Z,6.57
2019-03-13T11:14:19.757Z,6.56
2019-03-13T11:15:19.720Z,6.62
2019-03-13T11:16:19.632Z,6.59
2019-03-13T11:17:19.579Z,6.56
2019-03-13T11:18:19.523Z,6.60
2019-03-13T11:19:19.468Z,6.66
2019-03-13T11:20:19.435Z,6.57
2019-03-13T11:21:19.355Z,6.63
2019-03-13T11:22:19.306Z,6.57
2019-03-13T11:23:19.249Z,6.65
2019-03-13T11:24:19.193Z,6.74
2019-03-13T11:25:19.158Z,6.67
2019-03-13T11:26:19.088Z,6.75
2019-03-13T11:27:19.027Z,6.71
2019-03-13T11:28:18.973Z,6.66
2019-03-13T11:29:18.917Z,6.67
2019-03-13T11:30:20.679Z,6.67
2019-03-13T11:31:18.811Z,6.71
2019-03-13T11:32:18.772Z,6.71
2019-03-13T11:33:18.696Z,6.75
2019-03-13T11:34:18.641Z,6.78
2019-03-13T11:35:18.611Z,6.85
2019-03-13T11:36:18.533Z,6.88
2019-03-13T11:37:18.470Z,6.78
2019-03-13T11:38:18.417Z,6.78
2019-03-13T11:39:18.358Z,6.83
2019-03-13T11:40:18.334Z,6.93
2019-03-13T11:41:18.256Z,6.95
2019-03-13T11:42:18.196Z,6.88
2019-03-13T11:43:18.146Z,6.88
2019-03-13T11:44:18.102Z,6.88
2019-03-13T11:45:18.061Z,6.95
2019-03-13T11:46:17.978Z,6.92
2019-03-13T11:47:17.921Z,6.95
2019-03-13T11:48:17.868Z,6.93
2019-03-13T11:49:17.822Z,6.93
2019-03-13T11:50:17.783Z,7.05
2019-03-13T11:51:17.708Z,7.07
2019-03-13T11:52:17.650Z,7.05
2019-03-13T11:53:17.598Z,7.07
2019-03-13T11:54:17.545Z,7.16
2019-03-13T11:55:17.506Z,7.20
2019-03-13T11:56:17.429Z,7.13
2019-03-13T11:57:17.369Z,7.17
2019-03-13T11:58:17.320Z,7.18
2019-03-13T11:59:17.261Z,7.20
2019-03-13T12:00:17.236Z,7.21
2019-03-13T12:01:17.615Z,7.23
2019-03-13T12:02:17.102Z,7.21
2019-03-13T12:03:17.045Z,7.23
2019-03-13T12:04:16.985Z,7.25
2019-03-13T12:05:16.958Z,7.29
2019-03-13T12:06:16.908Z,7.20
2019-03-13T12:07:16.828Z,7.26
2019-03-13T12:08:16.779Z,7.25
2019-03-13T12:09:16.720Z,7.31
2019-03-13T12:10:16.662Z,7.25
2019-03-13T12:11:16.629Z,7.23
2019-03-13T12:12:16.551Z,7.29
2019-03-13T12:13:16.497Z,7.28
2019-03-13T12:14:16.448Z,7.29
2019-03-13T12:15:16.389Z,7.42
2019-03-13T12:16:16.356Z,7.39
2019-03-13T12:17:16.277Z,7.36
2019-03-13T12:18:16.223Z,7.41
2019-03-13T12:19:16.171Z,7.46
2019-03-13T12:20:16.106Z,7.42
2019-03-13T12:21:16.079Z,7.41
2019-03-13T12:22:16.004Z,7.44
2019-03-13T12:23:15.950Z,7.46
2019-03-13T12:24:15.899Z,7.42
2019-03-13T12:25:15.836Z,7.52
2019-03-13T12:26:15.811Z,7.52
2019-03-13T12:27:15.732Z,7.50
2019-03-13T12:28:15.681Z,7.54
2019-03-13T12:29:15.621Z,7.46
2019-03-13T12:30:15.584Z,7.47
2019-03-13T12:31:15.541Z,7.56
2019-03-13T12:32:15.459Z,7.50
2019-03-13T12:33:15.403Z,7.53
2019-03-13T12:34:15.352Z,7.53
2019-03-13T12:35:15.297Z,7.59
2019-03-13T12:36:15.266Z,7.50
2019-03-13T12:37:15.193Z,7.50
2019-03-13T12:38:15.132Z,7.52
2019-03-13T12:39:15.095Z,7.47
2019-03-13T12:40:15.021Z,7.50
2019-03-13T12:41:14.992Z,7.49
2019-03-13T12:42:14.913Z,7.46
2019-03-13T12:43:14.858Z,7.46
2019-03-13T12:44:14.809Z,7.47
2019-03-13T12:45:14.752Z,7.39
2019-03-13T12:46:14.724Z,7.42
2019-03-13T12:47:14.643Z,7.41
2019-03-13T12:48:16.987Z,7.29
2019-03-13T12:49:14.534Z,7.32
2019-03-13T12:50:14.478Z,7.28
2019-03-13T12:51:14.441Z,7.31
2019-03-13T12:52:14.374Z,7.20
2019-03-13T12:53:14.313Z,7.23
2019-03-13T12:54:14.262Z,7.26
2019-03-13T12:55:14.206Z,7.21
2019-03-13T12:56:14.168Z,7.16
2019-03-13T12:57:14.089Z,7.20
2019-03-13T12:58:14.037Z,7.14
2019-03-13T12:59:13.988Z,7.17
2019-03-13T13:00:13.933Z,7.29
2019-03-13T13:01:13.897Z,7.21
2019-03-13T13:02:13.822Z,7.23
2019-03-13T13:03:13.763Z,7.20
2019-03-13T13:04:13.710Z,7.16
2019-03-13T13:05:13.656Z,7.21
2019-03-13T13:06:13.625Z,7.25
2019-03-13T13:07:13.549Z,7.18
2019-03-13T13:08:13.489Z,7.25
2019-03-13T13:09:13.433Z,7.21
2019-03-13T13:10:13.380Z,7.23
2019-03-13T13:11:13.346Z,7.26
2019-03-13T13:12:13.271Z,7.18
2019-03-13T13:13:13.213Z,7.20
2019-03-13T13:14:13.160Z,7.13
2019-03-13T13:15:13.110Z,7.17
2019-03-13T13:16:13.074Z,7.11
2019-03-13T13:17:12.993Z,7.03
2019-03-13T13:18:12.935Z,6.92